Airfield :
LOGIN :

Register | Disclaimer

   EN    FR    IT 

 










Legend :    VFR   Marginal VFR   IFR   Intensive IFR   Very Intensive IFR
Visi :
Ceiling :
>= 8 km
>= 3000ft
5 to 8 km
1000 to 3000 ft
1500m to 5 km
500 to 1000 ft
800 to 1500m
200 to 500 ft
< 800m
< 200 ft
Symbols :   Thunderstorms  Fog  Heavy snow  Heavy precipitations  Wind > 20 kt
SIGMETs :     Misc.  Thunderstorms  Icing  Turbulence  Mountain Waves  Volcanic Ashes






- Airport Elevation : 23 ft
- IATA code : XFW


EDHI - Hamburg Finkenwerder

CURRENT METAR :
  • 031450Z VRB03KT 9999 FEW040 20/10 Q1012

EXPIRED METARs :
  • 031420Z 29005KT 210V010 9999 SCT044 20/10 Q1012
  • 031350Z 31006KT 270V360 9999 FEW043 20/11 Q1013
  • 031320Z 28005KT 230V310 9999 FEW044 19/11 Q1013
  • 031250Z 30005KT 260V340 CAVOK 20/11 Q1013
  • 031220Z 29006KT 260V350 9999 FEW042 20/10 Q1013

TAF TAF EDHI
Valid from the 03 at 15:00 until the 03 at 21:00 UTC


031400Z 0315/0321 31005KT 9999 FEW040
BECMG 0316/0318 02004KT



MET'MAP, your aeronautical weather chart ! - Copyright ORBIFLY December 2007 - Disclaimer

ORBIFLY MET'MAP TEAM :

Programming & Development : Alexandra Zaïnal
Concept & original design : Baudouin d'Aumeries
Assistance for programming : Marc-Olivier Méhu
Technical & hardware support : Manuel Goepfert

Contact : metmap@orbifly.com




SOURCES & CREDITS :

   NOAA